sensor_id;sensor_type;location;lat;lon;timestamp;pressure;altitude;pressure_sealevel;temperature;humidity
25130;BME280;13308;50.860;13.664;2022-11-15T07:37:36;96549.63;;;7.45;100.00
25130;BME280;13308;50.860;13.664;2022-11-15T07:40:19;96543.25;;;7.55;100.00
25130;BME280;13308;50.860;13.664;2022-11-15T07:43:05;96547.53;;;7.63;100.00
25130;BME280;13308;50.860;13.664;2022-11-15T07:45:49;96553.69;;;7.74;100.00
25130;BME280;13308;50.860;13.664;2022-11-15T07:48:33;96554.31;;;7.92;100.00
25130;BME280;13308;50.860;13.664;2022-11-15T07:51:17;96553.81;;;8.04;100.00
25130;BME280;13308;50.860;13.664;2022-11-15T07:54:01;96550.09;;;8.21;100.00
25130;BME280;13308;50.860;13.664;2022-11-15T07:56:45;96560.53;;;8.36;100.00
25130;BME280;13308;50.860;13.664;2022-11-15T07:59:29;96550.19;;;8.47;100.00
25130;BME280;13308;50.860;13.664;2022-11-15T08:02:13;96543.28;;;8.65;100.00
25130;BME280;13308;50.860;13.664;2022-11-15T08:04:57;96546.63;;;8.80;100.00
25130;BME280;13308;50.860;13.664;2022-11-15T08:07:40;96544.00;;;8.99;100.00
25130;BME280;13308;50.860;13.664;2022-11-15T08:10:25;96540.25;;;9.13;100.00
25130;BME280;13308;50.860;13.664;2022-11-15T08:13:11;96549.91;;;9.24;100.00
25130;BME280;13308;50.860;13.664;2022-11-15T08:16:02;96548.13;;;9.37;100.00
25130;BME280;13308;50.860;13.664;2022-11-15T08:18:49;96550.31;;;9.49;100.00
25130;BME280;13308;50.860;13.664;2022-11-15T08:21:32;96552.13;;;9.59;100.00
25130;BME280;13308;50.860;13.664;2022-11-15T08:24:16;96547.25;;;9.90;100.00
25130;BME280;13308;50.860;13.664;2022-11-15T08:27:00;96539.91;;;10.06;100.00
25130;BME280;13308;50.860;13.664;2022-11-15T08:29:45;96550.81;;;10.13;100.00
25130;BME280;13308;50.860;13.664;2022-11-15T08:32:31;96545.72;;;10.31;100.00
25130;BME280;13308;50.860;13.664;2022-11-15T08:35:15;96547.00;;;10.46;98.76
25130;BME280;13308;50.860;13.664;2022-11-15T08:37:59;96543.13;;;10.63;98.68
25130;BME280;13308;50.860;13.664;2022-11-15T08:40:43;96535.97;;;10.85;97.50
25130;BME280;13308;50.860;13.664;2022-11-15T08:43:27;96543.47;;;11.20;95.39
25130;BME280;13308;50.860;13.664;2022-11-15T08:46:12;96544.19;;;11.56;94.03
25130;BME280;13308;50.860;13.664;2022-11-15T08:48:57;96537.09;;;12.03;90.43
25130;BME280;13308;50.860;13.664;2022-11-15T08:51:41;96540.50;;;12.23;89.42
25130;BME280;13308;50.860;13.664;2022-11-15T08:54:25;96536.72;;;12.74;85.57
25130;BME280;13308;50.860;13.664;2022-11-15T08:57:09;96543.00;;;13.16;82.66
25130;BME280;13308;50.860;13.664;2022-11-15T08:59:53;96541.13;;;13.63;81.44
25130;BME280;13308;50.860;13.664;2022-11-15T09:02:39;96543.06;;;14.00;79.81
25130;BME280;13308;50.860;13.664;2022-11-15T09:05:23;96538.00;;;14.32;77.15
25130;BME280;13308;50.860;13.664;2022-11-15T09:08:07;96537.63;;;14.43;74.47
25130;BME280;13308;50.860;13.664;2022-11-15T09:10:51;96539.41;;;14.71;73.96
25130;BME280;13308;50.860;13.664;2022-11-15T09:13:35;96544.63;;;14.90;73.29
25130;BME280;13308;50.860;13.664;2022-11-15T09:16:20;96541.88;;;15.21;72.12
25130;BME280;13308;50.860;13.664;2022-11-15T09:19:04;96551.53;;;15.59;69.37
25130;BME280;13308;50.860;13.664;2022-11-15T09:21:48;96549.25;;;15.85;68.24
25130;BME280;13308;50.860;13.664;2022-11-15T09:24:32;96551.69;;;16.13;65.50
25130;BME280;13308;50.860;13.664;2022-11-15T09:27:16;96550.47;;;16.32;65.35
25130;BME280;13308;50.860;13.664;2022-11-15T09:30:00;96550.81;;;16.70;63.74
25130;BME280;13308;50.860;13.664;2022-11-15T09:32:44;96548.59;;;17.10;63.03
25130;BME280;13308;50.860;13.664;2022-11-15T09:35:27;96545.59;;;17.32;60.66
25130;BME280;13308;50.860;13.664;2022-11-15T09:38:11;96535.78;;;17.54;59.99
25130;BME280;13308;50.860;13.664;2022-11-15T09:47:02;96539.41;;;17.78;59.05
25130;BME280;13308;50.860;13.664;2022-11-15T09:50:01;96535.72;;;17.72;57.30
25130;BME280;13308;50.860;13.664;2022-11-15T09:52:36;96529.72;;;17.97;57.75
25130;BME280;13308;50.860;13.664;2022-11-15T09:55:04;96529.31;;;18.37;57.39
25130;BME280;13308;50.860;13.664;2022-11-15T09:57:32;96522.59;;;18.43;56.79
25130;BME280;13308;50.860;13.664;2022-11-15T10:00:20;96527.31;;;18.75;55.56
25130;BME280;13308;50.860;13.664;2022-11-15T10:05:39;96522.53;;;19.48;53.10
25130;BME280;13308;50.860;13.664;2022-11-15T10:10:44;96524.63;;;19.82;51.81
25130;BME280;13308;50.860;13.664;2022-11-15T10:13:26;96509.91;;;19.87;51.72
25130;BME280;13308;50.860;13.664;2022-11-15T10:16:01;96507.75;;;19.62;51.68
25130;BME280;13308;50.860;13.664;2022-11-15T10:18:35;96498.72;;;19.87;50.85
25130;BME280;13308;50.860;13.664;2022-11-15T10:21:22;96499.09;;;19.60;50.65
25130;BME280;13308;50.860;13.664;2022-11-15T10:23:48;96490.09;;;19.56;51.46
25130;BME280;13308;50.860;13.664;2022-11-15T10:26:16;96487.56;;;19.72;50.53
25130;BME280;13308;50.860;13.664;2022-11-15T10:28:42;96484.47;;;19.70;50.20
25130;BME280;13308;50.860;13.664;2022-11-15T10:31:33;96485.81;;;19.75;50.91
25130;BME280;13308;50.860;13.664;2022-11-15T10:34:15;96478.50;;;20.32;49.94
25130;BME280;13308;50.860;13.664;2022-11-15T10:37:00;96471.22;;;20.20;49.29
25130;BME280;13308;50.860;13.664;2022-11-15T10:39:27;96472.16;;;20.57;48.46
25130;BME280;13308;50.860;13.664;2022-11-15T10:41:53;96465.38;;;20.63;49.56
25130;BME280;13308;50.860;13.664;2022-11-15T10:44:30;96465.59;;;20.60;48.67
25130;BME280;13308;50.860;13.664;2022-11-15T10:49:27;96464.81;;;20.59;49.87
25130;BME280;13308;50.860;13.664;2022-11-15T10:51:57;96464.81;;;20.85;47.93
25130;BME280;13308;50.860;13.664;2022-11-15T10:57:08;96451.72;;;20.96;48.86
25130;BME280;13308;50.860;13.664;2022-11-15T10:59:37;96452.19;;;20.69;47.58
25130;BME280;13308;50.860;13.664;2022-11-15T11:04:58;96442.09;;;21.34;48.63
25130;BME280;13308;50.860;13.664;2022-11-15T11:07:31;96446.34;;;20.73;46.32
25130;BME280;13308;50.860;13.664;2022-11-15T11:10:03;96438.28;;;19.95;47.51
25130;BME280;13308;50.860;13.664;2022-11-15T11:12:31;96427.56;;;20.79;47.60
25130;BME280;13308;50.860;13.664;2022-11-15T11:14:58;96428.41;;;21.10;46.91
25130;BME280;13308;50.860;13.664;2022-11-15T11:17:32;96427.88;;;21.12;46.62
25130;BME280;13308;50.860;13.664;2022-11-15T11:20:13;96424.28;;;21.37;45.69
25130;BME280;13308;50.860;13.664;2022-11-15T11:25:35;96418.97;;;21.81;46.44
25130;BME280;13308;50.860;13.664;2022-11-15T11:33:52;96404.66;;;22.32;44.44
25130;BME280;13308;50.860;13.664;2022-11-15T11:36:40;96410.84;;;22.47;43.87
25130;BME280;13308;50.860;13.664;2022-11-15T11:42:19;96399.19;;;22.12;43.48
25130;BME280;13308;50.860;13.664;2022-11-15T11:47:41;96389.59;;;21.40;44.84
25130;BME280;13308;50.860;13.664;2022-11-15T11:50:18;96394.28;;;21.96;46.80
25130;BME280;13308;50.860;13.664;2022-11-15T11:53:01;96390.28;;;22.19;44.51
25130;BME280;13308;50.860;13.664;2022-11-15T11:55:51;96393.06;;;22.08;43.83
25130;BME280;13308;50.860;13.664;2022-11-15T11:58:45;96390.47;;;22.74;44.69
25130;BME280;13308;50.860;13.664;2022-11-15T12:01:16;96398.19;;;23.12;42.63
25130;BME280;13308;50.860;13.664;2022-11-15T12:03:49;96385.09;;;22.76;42.17
25130;BME280;13308;50.860;13.664;2022-11-15T12:12:09;96372.53;;;22.55;43.46
25130;BME280;13308;50.860;13.664;2022-11-15T12:17:10;96364.03;;;21.74;45.68
25130;BME280;13308;50.860;13.664;2022-11-15T12:19:36;96367.22;;;22.90;42.72
25130;BME280;13308;50.860;13.664;2022-11-15T12:22:21;96358.28;;;21.94;44.44
25130;BME280;13308;50.860;13.664;2022-11-15T12:24:59;96357.00;;;22.70;42.99
25130;BME280;13308;50.860;13.664;2022-11-15T12:27:35;96357.38;;;22.30;43.76
25130;BME280;13308;50.860;13.664;2022-11-15T12:30:08;96349.69;;;22.31;43.20
25130;BME280;13308;50.860;13.664;2022-11-15T12:32:38;96342.84;;;22.43;44.00
25130;BME280;13308;50.860;13.664;2022-11-15T12:35:30;96338.56;;;23.41;42.02
25130;BME280;13308;50.860;13.664;2022-11-15T12:37:56;96341.63;;;22.93;42.49
25130;BME280;13308;50.860;13.664;2022-11-15T12:45:35;96321.66;;;23.35;42.24
25130;BME280;13308;50.860;13.664;2022-11-15T12:58:43;96311.72;;;22.79;42.69
25130;BME280;13308;50.860;13.664;2022-11-15T13:06:42;96295.59;;;23.07;42.11
25130;BME280;13308;50.860;13.664;2022-11-15T13:11:56;96308.81;;;23.56;40.44
25130;BME280;13308;50.860;13.664;2022-11-15T13:17:12;96297.78;;;23.69;40.60
25130;BME280;13308;50.860;13.664;2022-11-15T13:19:42;96292.28;;;22.54;41.57
25130;BME280;13308;50.860;13.664;2022-11-15T13:22:10;96293.47;;;22.14;42.63
25130;BME280;13308;50.860;13.664;2022-11-15T13:24:55;96289.41;;;22.26;42.03
25130;BME280;13308;50.860;13.664;2022-11-15T13:27:21;96281.91;;;21.85;44.01
25130;BME280;13308;50.860;13.664;2022-11-15T13:29:46;96289.19;;;22.41;42.97
25130;BME280;13308;50.860;13.664;2022-11-15T13:32:13;96293.56;;;22.69;41.34
25130;BME280;13308;50.860;13.664;2022-11-15T13:34:43;96290.75;;;22.64;41.66
25130;BME280;13308;50.860;13.664;2022-11-15T13:39:45;96282.84;;;22.84;42.21
25130;BME280;13308;50.860;13.664;2022-11-15T13:42:15;96280.75;;;22.35;42.74
25130;BME280;13308;50.860;13.664;2022-11-15T13:44:57;96279.78;;;21.69;44.01
25130;BME280;13308;50.860;13.664;2022-11-15T13:47:25;96270.94;;;21.34;44.13
25130;BME280;13308;50.860;13.664;2022-11-15T13:49:52;96270.38;;;21.30;44.37
25130;BME280;13308;50.860;13.664;2022-11-15T13:52:17;96275.59;;;21.48;44.76
25130;BME280;13308;50.860;13.664;2022-11-15T13:54:46;96269.16;;;21.95;43.88
25130;BME280;13308;50.860;13.664;2022-11-15T13:57:19;96271.19;;;21.89;43.99
25130;BME280;13308;50.860;13.664;2022-11-15T13:59:52;96262.88;;;21.58;44.16
25130;BME280;13308;50.860;13.664;2022-11-15T14:02:26;96261.97;;;20.88;44.95
25130;BME280;13308;50.860;13.664;2022-11-15T14:04:55;96257.34;;;19.97;46.86
25130;BME280;13308;50.860;13.664;2022-11-15T14:07:25;96248.56;;;20.10;47.08
25130;BME280;13308;50.860;13.664;2022-11-15T14:09:51;96241.84;;;19.76;48.68
25130;BME280;13308;50.860;13.664;2022-11-15T14:14:50;96231.78;;;18.21;53.57
25130;BME280;13308;50.860;13.664;2022-11-15T14:19:55;96213.34;;;16.95;59.22
25130;BME280;13308;50.860;13.664;2022-11-15T14:22:22;96221.06;;;16.44;63.81
25130;BME280;13308;50.860;13.664;2022-11-15T14:27:37;96202.78;;;15.06;74.13
25130;BME280;13308;50.860;13.664;2022-11-15T14:30:03;96207.06;;;14.80;76.07
25130;BME280;13308;50.860;13.664;2022-11-15T14:32:37;96212.47;;;14.84;74.22
25130;BME280;13308;50.860;13.664;2022-11-15T14:35:14;96204.22;;;14.44;75.98
25130;BME280;13308;50.860;13.664;2022-11-15T14:37:40;96200.22;;;13.75;79.92
25130;BME280;13308;50.860;13.664;2022-11-15T14:40:06;96200.56;;;13.34;81.52
25130;BME280;13308;50.860;13.664;2022-11-15T14:42:32;96194.63;;;12.89;80.26
25130;BME280;13308;50.860;13.664;2022-11-15T14:44:57;96201.88;;;12.74;78.72
25130;BME280;13308;50.860;13.664;2022-11-15T14:47:23;96194.59;;;12.55;81.74
25130;BME280;13308;50.860;13.664;2022-11-15T14:49:48;96192.25;;;12.20;82.39
25130;BME280;13308;50.860;13.664;2022-11-15T14:52:29;96187.94;;;11.81;83.82
25130;BME280;13308;50.860;13.664;2022-11-15T14:54:59;96184.00;;;11.41;86.25
25130;BME280;13308;50.860;13.664;2022-11-15T14:57:24;96179.97;;;11.17;86.57
25130;BME280;13308;50.860;13.664;2022-11-15T14:59:50;96180.22;;;10.94;87.16
25130;BME280;13308;50.860;13.664;2022-11-15T15:02:18;96174.06;;;10.74;87.42
25130;BME280;13308;50.860;13.664;2022-11-15T15:04:45;96176.84;;;10.58;88.12
25130;BME280;13308;50.860;13.664;2022-11-15T15:07:10;96174.75;;;10.34;89.77
25130;BME280;13308;50.860;13.664;2022-11-15T15:09:35;96170.56;;;10.29;89.36
25130;BME280;13308;50.860;13.664;2022-11-15T15:12:01;96176.72;;;10.17;90.34
25130;BME280;13308;50.860;13.664;2022-11-15T15:14:26;96169.66;;;10.16;90.54
25130;BME280;13308;50.860;13.664;2022-11-15T15:16:52;96167.78;;;10.13;91.99
25130;BME280;13308;50.860;13.664;2022-11-15T15:19:17;96156.16;;;10.06;92.57
25130;BME280;13308;50.860;13.664;2022-11-15T15:21:42;96160.56;;;10.03;91.24
25130;BME280;13308;50.860;13.664;2022-11-15T15:24:13;96158.38;;;9.95;94.48
25130;BME280;13308;50.860;13.664;2022-11-15T15:26:39;96160.38;;;9.94;95.45
25130;BME280;13308;50.860;13.664;2022-11-15T15:29:05;96157.69;;;9.91;96.71
25130;BME280;13308;50.860;13.664;2022-11-15T15:31:30;96156.41;;;9.95;96.98
25130;BME280;13308;50.860;13.664;2022-11-15T15:33:55;96164.97;;;9.81;97.51
25130;BME280;13308;50.860;13.664;2022-11-15T15:36:21;96158.97;;;9.70;98.96
25130;BME280;13308;50.860;13.664;2022-11-15T15:38:46;96161.97;;;9.76;98.97
25130;BME280;13308;50.860;13.664;2022-11-15T15:41:13;96162.22;;;9.65;98.64
25130;BME280;13308;50.860;13.664;2022-11-15T15:43:39;96158.44;;;9.59;98.11
25130;BME280;13308;50.860;13.664;2022-11-15T15:46:10;96153.94;;;9.49;98.47
25130;BME280;13308;50.860;13.664;2022-11-15T15:48:36;96153.06;;;9.36;99.37
25130;BME280;13308;50.860;13.664;2022-11-15T15:51:03;96159.53;;;9.26;99.52
25130;BME280;13308;50.860;13.664;2022-11-15T15:53:28;96155.41;;;9.18;100.00
25130;BME280;13308;50.860;13.664;2022-11-15T15:55:55;96154.69;;;9.14;100.00
25130;BME280;13308;50.860;13.664;2022-11-15T15:58:20;96155.63;;;9.08;100.00
25130;BME280;13308;50.860;13.664;2022-11-15T16:00:46;96151.53;;;8.96;100.00
25130;BME280;13308;50.860;13.664;2022-11-15T16:03:11;96149.19;;;8.95;100.00
25130;BME280;13308;50.860;13.664;2022-11-15T16:05:36;96144.97;;;8.90;100.00
25130;BME280;13308;50.860;13.664;2022-11-15T16:08:02;96142.31;;;8.87;100.00
25130;BME280;13308;50.860;13.664;2022-11-15T16:10:31;96147.53;;;8.81;100.00
25130;BME280;13308;50.860;13.664;2022-11-15T16:12:57;96144.84;;;8.78;100.00
25130;BME280;13308;50.860;13.664;2022-11-15T16:15:30;96148.84;;;8.73;100.00
25130;BME280;13308;50.860;13.664;2022-11-15T16:17:58;96143.91;;;8.65;100.00
25130;BME280;13308;50.860;13.664;2022-11-15T16:20:38;96145.50;;;8.66;100.00
25130;BME280;13308;50.860;13.664;2022-11-15T16:23:12;96143.72;;;8.56;100.00
25130;BME280;13308;50.860;13.664;2022-11-15T16:25:48;96149.63;;;8.54;100.00
25130;BME280;13308;50.860;13.664;2022-11-15T16:28:25;96141.16;;;8.46;100.00
25130;BME280;13308;50.860;13.664;2022-11-15T16:31:05;96142.06;;;8.39;100.00
25130;BME280;13308;50.860;13.664;2022-11-15T16:33:31;96134.31;;;8.34;100.00
25130;BME280;13308;50.860;13.664;2022-11-15T16:35:57;96139.53;;;8.29;100.00
25130;BME280;13308;50.860;13.664;2022-11-15T16:38:22;96142.34;;;8.25;100.00
25130;BME280;13308;50.860;13.664;2022-11-15T16:40:47;96142.75;;;8.24;100.00
25130;BME280;13308;50.860;13.664;2022-11-15T16:43:13;96144.69;;;8.23;100.00
25130;BME280;13308;50.860;13.664;2022-11-15T16:45:38;96138.53;;;8.16;100.00
25130;BME280;13308;50.860;13.664;2022-11-15T16:48:04;96137.09;;;8.07;100.00
25130;BME280;13308;50.860;13.664;2022-11-15T16:50:32;96135.34;;;7.98;100.00
25130;BME280;13308;50.860;13.664;2022-11-15T16:52:59;96136.28;;;7.88;100.00
25130;BME280;13308;50.860;13.664;2022-11-15T16:55:27;96129.34;;;7.80;100.00
25130;BME280;13308;50.860;13.664;2022-11-15T16:57:56;96132.91;;;7.77;100.00
25130;BME280;13308;50.860;13.664;2022-11-15T17:00:26;96132.97;;;7.73;100.00
25130;BME280;13308;50.860;13.664;2022-11-15T17:02:52;96133.78;;;7.70;100.00
25130;BME280;13308;50.860;13.664;2022-11-15T17:05:19;96128.38;;;7.67;100.00
25130;BME280;13308;50.860;13.664;2022-11-15T17:07:47;96128.47;;;7.60;100.00
25130;BME280;13308;50.860;13.664;2022-11-15T17:10:19;96125.06;;;7.52;100.00
25130;BME280;13308;50.860;13.664;2022-11-15T17:12:44;96116.53;;;7.47;100.00
25130;BME280;13308;50.860;13.664;2022-11-15T17:15:11;96109.25;;;7.37;100.00
25130;BME280;13308;50.860;13.664;2022-11-15T17:17:37;96096.59;;;7.43;100.00
25130;BME280;13308;50.860;13.664;2022-11-15T17:20:03;96095.06;;;7.42;100.00
25130;BME280;13308;50.860;13.664;2022-11-15T17:22:29;96096.72;;;7.36;100.00
25130;BME280;13308;50.860;13.664;2022-11-15T17:24:54;96107.56;;;7.43;100.00
25130;BME280;13308;50.860;13.664;2022-11-15T17:27:20;96109.13;;;7.44;100.00
25130;BME280;13308;50.860;13.664;2022-11-15T17:29:46;96111.63;;;7.35;100.00
25130;BME280;13308;50.860;13.664;2022-11-15T17:32:11;96104.78;;;7.20;100.00
25130;BME280;13308;50.860;13.664;2022-11-15T17:34:36;96106.44;;;7.14;100.00
25130;BME280;13308;50.860;13.664;2022-11-15T17:37:01;96104.19;;;7.09;100.00
25130;BME280;13308;50.860;13.664;2022-11-15T17:39:27;96108.81;;;7.12;100.00
25130;BME280;13308;50.860;13.664;2022-11-15T17:41:52;96100.53;;;7.15;100.00
25130;BME280;13308;50.860;13.664;2022-11-15T17:44:17;96104.88;;;7.13;100.00
25130;BME280;13308;50.860;13.664;2022-11-15T17:46:43;96102.53;;;7.15;100.00
25130;BME280;13308;50.860;13.664;2022-11-15T17:49:08;96103.34;;;7.12;100.00
25130;BME280;13308;50.860;13.664;2022-11-15T17:51:34;96100.25;;;7.10;100.00
25130;BME280;13308;50.860;13.664;2022-11-15T17:54:00;96099.06;;;7.11;100.00
25130;BME280;13308;50.860;13.664;2022-11-15T17:56:26;96100.50;;;7.19;100.00
25130;BME280;13308;50.860;13.664;2022-11-15T17:58:57;96098.47;;;7.23;100.00
25130;BME280;13308;50.860;13.664;2022-11-15T18:01:28;96093.00;;;7.23;100.00
25130;BME280;13308;50.860;13.664;2022-11-15T18:03:55;96090.72;;;7.18;100.00
25130;BME280;13308;50.860;13.664;2022-11-15T18:06:22;96086.13;;;7.11;100.00
25130;BME280;13308;50.860;13.664;2022-11-15T18:08:50;96078.25;;;7.13;100.00
25130;BME280;13308;50.860;13.664;2022-11-15T18:11:21;96072.88;;;7.06;100.00
25130;BME280;13308;50.860;13.664;2022-11-15T18:13:49;96070.56;;;7.05;100.00
25130;BME280;13308;50.860;13.664;2022-11-15T18:16:17;96065.13;;;7.01;100.00
25130;BME280;13308;50.860;13.664;2022-11-15T18:18:44;96066.88;;;6.88;100.00
25130;BME280;13308;50.860;13.664;2022-11-15T18:21:11;96064.22;;;6.81;100.00
25130;BME280;13308;50.860;13.664;2022-11-15T18:23:37;96063.50;;;6.77;100.00
25130;BME280;13308;50.860;13.664;2022-11-15T18:26:04;96059.25;;;6.73;100.00
25130;BME280;13308;50.860;13.664;2022-11-15T18:28:32;96051.44;;;6.71;100.00
25130;BME280;13308;50.860;13.664;2022-11-15T18:30:58;96049.94;;;6.67;100.00
25130;BME280;13308;50.860;13.664;2022-11-15T18:33:25;96055.44;;;6.63;100.00
25130;BME280;13308;50.860;13.664;2022-11-15T18:35:58;96049.25;;;6.59;100.00
25130;BME280;13308;50.860;13.664;2022-11-15T18:38:24;96042.28;;;6.55;100.00
